createdAt,value
2022-10-10T13:05:08.274Z,18.70
2022-10-10T13:09:28.088Z,17.20
2022-10-10T13:13:33.496Z,16.80
2022-10-10T13:17:41.637Z,16.60
2022-10-10T13:21:43.562Z,16.50
2022-10-10T13:25:46.365Z,16.30
2022-10-10T13:29:48.517Z,16.30
2022-10-10T13:33:50.554Z,16.10
2022-10-10T13:37:57.011Z,16.00
2022-10-10T13:41:59.508Z,15.80
2022-10-10T13:46:03.825Z,15.60
2022-10-10T13:50:24.964Z,15.50
2022-10-10T13:54:47.445Z,15.50
2022-10-10T13:58:53.982Z,15.30
2022-10-10T14:02:55.935Z,15.30
2022-10-10T14:07:03.649Z,15.20
2022-10-10T14:11:08.579Z,15.10
2022-10-10T14:15:49.857Z,15.00
2022-10-10T14:19:52.672Z,15.00
2022-10-10T14:23:54.603Z,14.90
2022-10-10T14:27:56.545Z,14.90
2022-10-10T14:31:58.488Z,14.80
2022-10-10T14:36:00.794Z,14.70
2022-10-10T14:40:03.101Z,14.70
2022-10-10T14:44:05.301Z,14.60
2022-10-10T14:48:07.839Z,14.60
2022-10-10T14:52:09.729Z,14.50
2022-10-10T14:56:13.143Z,14.50
2022-10-10T15:00:18.981Z,14.50
2022-10-10T15:04:20.900Z,14.50
2022-10-10T15:08:22.819Z,14.50
2022-10-10T15:12:24.765Z,14.50
2022-10-10T15:16:26.953Z,14.50
2022-10-10T15:20:32.357Z,14.50
2022-10-10T15:24:34.656Z,14.40
2022-10-10T15:28:36.743Z,14.30
2022-10-10T15:32:39.868Z,14.30
2022-10-10T15:36:41.803Z,14.30
2022-10-10T15:40:43.719Z,14.20
2022-10-10T15:44:47.216Z,14.20
2022-10-10T15:48:49.193Z,14.10
2022-10-10T15:52:51.088Z,14.00
2022-10-10T15:56:53.025Z,14.10
2022-10-10T16:00:54.969Z,14.00
2022-10-10T16:04:56.909Z,14.00
2022-10-10T16:09:23.428Z,14.00
2022-10-10T16:13:20.832Z,13.90
2022-10-10T16:17:23.812Z,13.80
2022-10-10T16:21:26.770Z,13.80
2022-10-10T16:25:28.717Z,13.60
2022-10-10T16:29:30.644Z,13.30
2022-10-10T16:33:33.977Z,13.00
2022-10-10T16:37:35.905Z,12.80
2022-10-10T16:41:53.183Z,12.60
2022-10-10T16:45:55.147Z,12.50
2022-10-10T16:49:57.128Z,12.40
2022-10-10T16:54:02.789Z,12.30
2022-10-10T16:58:04.721Z,12.20
2022-10-10T17:02:06.711Z,12.20
2022-10-10T17:06:13.185Z,12.10
2022-10-10T17:10:15.117Z,12.10
2022-10-10T17:14:17.074Z,12.10
2022-10-10T17:18:19.701Z,12.00
2022-10-10T17:22:21.636Z,12.00
2022-10-10T17:26:23.994Z,12.00
2022-10-10T17:30:25.968Z,12.00
2022-10-10T17:34:27.832Z,11.90
2022-10-10T17:38:39.700Z,11.90
2022-10-10T17:42:42.120Z,11.90
2022-10-10T17:46:45.256Z,11.80
2022-10-10T17:50:47.497Z,11.80
2022-10-10T17:54:49.546Z,11.80
2022-10-10T17:58:51.574Z,11.70
2022-10-10T18:02:53.496Z,11.70
2022-10-10T18:06:55.466Z,11.70
2022-10-10T18:10:57.364Z,11.70
2022-10-10T18:15:02.227Z,11.60
2022-10-10T18:19:05.839Z,11.60
2022-10-10T18:23:07.737Z,11.60
2022-10-10T18:27:09.662Z,11.60
2022-10-10T18:31:21.091Z,11.50
2022-10-10T18:35:23.131Z,11.50
2022-10-10T18:39:28.287Z,11.50
2022-10-10T18:43:33.441Z,11.50
2022-10-10T18:47:35.382Z,11.40
2022-10-10T18:51:41.363Z,11.40
2022-10-10T18:55:43.293Z,11.40
2022-10-10T18:59:45.220Z,11.30
2022-10-10T19:03:47.154Z,11.30
2022-10-10T19:07:49.097Z,11.20
2022-10-10T19:11:53.344Z,11.20
2022-10-10T19:15:55.830Z,11.20
2022-10-10T19:19:57.759Z,11.20
2022-10-10T19:24:01.169Z,11.10
2022-10-10T19:28:03.071Z,11.10
2022-10-10T19:32:05.149Z,11.10
2022-10-10T19:36:12.351Z,11.00
2022-10-10T19:40:14.238Z,11.00
2022-10-10T19:44:16.126Z,10.90
2022-10-10T19:48:19.805Z,10.90
2022-10-10T19:52:22.367Z,10.90
2022-10-10T19:56:25.803Z,10.80
2022-10-10T20:00:27.713Z,10.80
2022-10-10T20:04:29.621Z,10.70
2022-10-10T20:08:31.988Z,10.60
2022-10-10T20:12:34.674Z,10.60
2022-10-10T20:16:36.596Z,10.70
2022-10-10T20:20:43.106Z,10.60
2022-10-10T20:24:45.096Z,10.50
2022-10-10T20:28:47.420Z,10.50
2022-10-10T20:32:49.409Z,10.40
2022-10-10T20:36:51.277Z,10.40
2022-10-10T20:40:53.256Z,10.30
2022-10-10T20:44:55.233Z,10.30
2022-10-10T20:48:58.629Z,10.30
2022-10-10T20:53:00.604Z,10.20
2022-10-10T20:57:02.537Z,10.20
2022-10-10T21:01:10.572Z,10.20
2022-10-10T21:05:12.512Z,10.20
2022-10-10T21:09:15.769Z,10.10
2022-10-10T21:13:17.699Z,10.10
2022-10-10T21:17:19.559Z,10.10
2022-10-10T21:21:21.723Z,10.00
2022-10-10T21:25:23.592Z,10.00
2022-10-10T21:29:25.522Z,10.00
2022-10-10T21:33:27.564Z,10.00
2022-10-10T21:37:30.578Z,9.90
2022-10-10T21:41:32.750Z,9.90
2022-10-10T21:45:35.925Z,9.90
2022-10-10T21:49:37.895Z,9.90
2022-10-10T21:53:39.790Z,9.90
2022-10-10T21:57:41.693Z,9.90
2022-10-10T22:01:44.581Z,9.90
2022-10-10T22:05:46.535Z,9.90
2022-10-10T22:09:48.406Z,9.80
2022-10-10T22:13:50.793Z,9.80
2022-10-10T22:17:53.048Z,9.80
2022-10-10T22:21:54.915Z,9.80
2022-10-10T22:25:57.013Z,9.80
2022-10-10T22:29:58.869Z,9.70
2022-10-10T22:34:01.023Z,9.70
2022-10-10T22:38:03.155Z,9.60
2022-10-10T22:42:05.402Z,9.60
2022-10-10T22:46:08.127Z,9.60
2022-10-10T22:50:11.004Z,9.50
2022-10-10T22:54:13.936Z,9.50
2022-10-10T22:58:15.854Z,9.50
2022-10-10T23:02:17.696Z,9.50
2022-10-10T23:06:19.539Z,9.50
2022-10-10T23:10:21.581Z,9.40
2022-10-10T23:14:23.463Z,9.40
2022-10-10T23:18:25.433Z,9.40
2022-10-10T23:22:27.346Z,9.80
2022-10-10T23:26:29.238Z,9.30
2022-10-10T23:30:31.141Z,9.30
2022-10-10T23:34:33.131Z,9.30
2022-10-10T23:38:35.154Z,9.30
2022-10-10T23:42:37.077Z,9.30
2022-10-10T23:46:39.101Z,9.20
2022-10-10T23:50:41.162Z,9.20
2022-10-10T23:54:43.072Z,9.30
2022-10-10T23:58:45.015Z,9.20
